createdAt,value
2018-09-25T00:01:27.304Z,8.6
2018-09-25T00:11:26.989Z,6.8
2018-09-25T00:21:27.020Z,5.3
2018-09-25T00:31:27.686Z,7.4
2018-09-25T00:41:26.768Z,10.3
2018-09-25T00:51:26.486Z,6.4
2018-09-25T01:01:27.569Z,9.9
2018-09-25T01:11:27.717Z,11.0
2018-09-25T01:21:27.235Z,7.4
2018-09-25T01:31:26.980Z,7.4
2018-09-25T01:41:26.718Z,7.2
2018-09-25T01:51:26.877Z,5.8
2018-09-25T02:01:27.251Z,4.2
2018-09-25T02:11:27.337Z,10.1
2018-09-25T02:21:27.611Z,7.8
2018-09-25T02:31:27.304Z,8.2
2018-09-25T02:41:27.852Z,6.9
2018-09-25T02:51:27.272Z,6.6
2018-09-25T03:01:27.125Z,7.7
2018-09-25T03:11:27.541Z,4.3
2018-09-25T03:21:27.456Z,7.1
2018-09-25T03:31:27.163Z,4.3
2018-09-25T03:41:26.898Z,8.1
2018-09-25T03:51:27.356Z,6.2
2018-09-25T04:01:27.898Z,6.4
2018-09-25T04:11:26.705Z,5.1
2018-09-25T04:21:32.121Z,6.1
2018-09-25T04:31:27.337Z,4.4
2018-09-25T04:41:27.199Z,6.6
2018-09-25T04:51:33.284Z,7.3
2018-09-25T05:01:27.080Z,10.6
2018-09-25T05:11:27.011Z,8.0
2018-09-25T05:21:26.945Z,8.4
2018-09-25T05:31:26.601Z,10.9
2018-09-25T05:41:28.567Z,4.8
2018-09-25T05:51:27.306Z,5.6
2018-09-25T06:01:27.843Z,6.8
2018-09-25T06:11:28.194Z,4.1
2018-09-25T06:21:27.116Z,3.7
2018-09-25T06:31:27.256Z,6.0
2018-09-25T06:41:27.331Z,4.0
2018-09-25T06:51:27.337Z,6.3
2018-09-25T07:01:27.422Z,4.7
2018-09-25T07:11:27.438Z,5.4
2018-09-25T07:21:28.154Z,5.7
2018-09-25T07:31:26.974Z,5.0
2018-09-25T07:41:30.125Z,4.2
2018-09-25T07:51:28.588Z,4.3
2018-09-25T08:01:27.308Z,2.6
2018-09-25T08:11:27.307Z,8.7
2018-09-25T08:21:28.794Z,5.0
2018-09-25T08:31:27.339Z,3.5
2018-09-25T08:41:27.091Z,1.6
2018-09-25T08:51:26.789Z,9.0
2018-09-25T09:01:28.359Z,5.2
2018-09-25T09:11:28.263Z,5.9
2018-09-25T09:21:28.034Z,7.2
2018-09-25T09:31:28.460Z,5.5
2018-09-25T09:41:27.939Z,2.7
2018-09-25T09:51:26.533Z,6.6
2018-09-25T10:01:27.633Z,6.6
2018-09-25T10:11:27.441Z,5.6
2018-09-25T10:21:26.456Z,6.3
2018-09-25T10:31:27.111Z,7.0
2018-09-25T10:41:26.952Z,2.9
2018-09-25T10:51:27.524Z,3.9
2018-09-25T11:01:27.956Z,6.0
2018-09-25T11:11:26.646Z,2.8
2018-09-25T11:21:27.280Z,3.0
2018-09-25T11:31:27.708Z,2.3
2018-09-25T11:41:26.754Z,2.8
2018-09-25T11:51:26.710Z,3.9
2018-09-25T12:01:26.868Z,1.8
2018-09-25T12:11:27.450Z,1.7
2018-09-25T12:21:28.645Z,3.9
2018-09-25T12:31:26.839Z,4.5
2018-09-25T12:41:28.621Z,2.7
2018-09-25T12:51:26.490Z,3.1
2018-09-25T13:01:27.992Z,2.5
2018-09-25T13:11:29.168Z,5.5
2018-09-25T13:21:32.717Z,3.3
2018-09-25T13:31:32.367Z,1.5
2018-09-25T13:41:28.326Z,4.1
2018-09-25T13:51:32.592Z,2.8
2018-09-25T14:01:33.174Z,2.3
2018-09-25T14:11:32.528Z,1.6
2018-09-25T14:21:26.741Z,1.6
2018-09-25T14:31:26.704Z,5.2
2018-09-25T14:41:26.737Z,1.7
2018-09-25T14:51:26.791Z,2.1
2018-09-25T15:01:26.642Z,2.5
2018-09-25T15:11:30.474Z,1.4
2018-09-25T15:21:27.351Z,2.9
2018-09-25T15:31:26.941Z,1.6
2018-09-25T15:41:26.768Z,3.4
2018-09-25T15:51:28.694Z,5.0
2018-09-25T16:01:29.996Z,3.7
2018-09-25T16:11:26.968Z,3.1
2018-09-25T16:21:26.882Z,3.4
2018-09-25T16:31:27.306Z,4.2
2018-09-25T16:41:32.489Z,7.0
2018-09-25T16:51:28.122Z,6.8
2018-09-25T17:01:27.268Z,3.8
2018-09-25T17:11:27.390Z,6.1
2018-09-25T17:21:29.662Z,8.1
2018-09-25T17:31:29.393Z,3.9
2018-09-25T17:41:29.528Z,6.4
2018-09-25T17:51:27.946Z,5.6
2018-09-25T18:01:26.756Z,6.2
2018-09-25T18:11:26.683Z,7.0
2018-09-25T18:21:27.423Z,6.1
2018-09-25T18:31:27.130Z,7.9
2018-09-25T18:41:28.149Z,12.0
2018-09-25T18:51:27.131Z,7.9
2018-09-25T19:01:27.748Z,9.5
2018-09-25T19:11:27.106Z,13.4
2018-09-25T19:21:27.896Z,13.8
2018-09-25T19:31:27.669Z,12.8
2018-09-25T19:41:26.689Z,17.2
2018-09-25T19:51:26.491Z,12.4
2018-09-25T20:01:27.260Z,18.9
2018-09-25T20:11:27.204Z,18.2
2018-09-25T20:21:27.555Z,31.5
2018-09-25T20:31:29.910Z,20.6
2018-09-25T20:41:26.815Z,16.6
2018-09-25T20:51:28.213Z,16.1
2018-09-25T21:01:27.232Z,16.5
2018-09-25T21:11:27.515Z,21.9
2018-09-25T21:21:26.710Z,19.9
2018-09-25T21:31:26.443Z,19.3
2018-09-25T21:41:27.610Z,17.1
2018-09-25T21:51:27.088Z,20.0
2018-09-25T22:01:29.217Z,22.6
2018-09-25T22:11:28.194Z,24.5
2018-09-25T22:21:26.892Z,24.8
2018-09-25T22:31:26.857Z,25.6
2018-09-25T22:41:26.775Z,24.9
2018-09-25T22:51:27.493Z,30.7
2018-09-25T23:01:27.663Z,26.9
2018-09-25T23:11:28.498Z,31.0
2018-09-25T23:21:27.891Z,29.1
2018-09-25T23:31:26.616Z,29.3
2018-09-25T23:41:27.362Z,34.3
2018-09-25T23:51:27.764Z,30.1
